Mounds, Oklahoma
Current Conditions -  °F | °C
As of 6:53 PM on Tuesday 27 Jan 2015 (Local Time) from KRVS Reporting Station
Clear Clear  
Wind Chill: 60°   Ceiling: Unl
Heat Index: 60°   Visibility: 10mi
Dew Point: 36°   Wind: 3mph
Humidity: 41%   Direction: 170°S
Pressure: 30.06"   Gusts: NA
Location:  35.88°N, 96.06°W
Report Text: KRVS 280053Z 17003KT 10SM CLR 16/02 A3006 RMK AO2 SLP186 T01560022
Loading
Personal Weather Stations






























Interactive Weather Map New forecast layout! Learn more

10-Day Weather Forecast

Advertisements
Track Severe Weather on mobile